Time;durP1;ratioP1;P1;durP2;ratioP2;P2;SDS_P1;SDS_P2;PMS_P1;PMS_P2;Temp;Humidity;BMP_temperature;BMP_pressure;BME280_temperature;BME280_humidity;BME280_pressure;Samples;Min_cycle;Max_cycle;Signal;HPM_P1;HPM_P2
2022/01/24 00:01:54;;;;;;;9.25;5.68;;;5.70;99.90;;;;;;4993457;28;20499;-83
2022/01/24 00:04:23;;;;;;;10.02;6.13;;;5.70;99.90;;;;;;4993278;28;20025;-83
2022/01/24 00:06:49;;;;;;;8.25;5.82;;;5.80;99.90;;;;;;4993703;28;20026;-83
2022/01/24 00:09:15;;;;;;;8.60;5.72;;;5.80;99.90;;;;;;4993632;28;20473;-83
2022/01/24 00:16:59;;;;;;;10.13;5.97;;;5.70;99.90;;;;;;5014068;28;20042;-83
2022/01/24 00:27:15;;;;;;;9.20;5.88;;;5.70;99.90;;;;;;5014092;28;20111;-83
2022/01/24 00:29:40;;;;;;;9.65;6.40;;;5.70;99.90;;;;;;5012707;28;20049;-83
2022/01/24 00:32:07;;;;;;;11.68;6.80;;;5.80;99.90;;;;;;5014248;28;20022;-83
2022/01/24 00:34:32;;;;;;;10.32;6.60;;;5.80;99.90;;;;;;5013108;28;20549;-83
2022/01/24 00:36:58;;;;;;;11.10;6.85;;;5.70;99.90;;;;;;5013065;28;20141;-83
2022/01/24 00:39:24;;;;;;;11.70;6.82;;;5.70;99.90;;;;;;5012453;28;20026;-83
2022/01/24 00:47:23;;;;;;;11.65;6.57;;;5.70;99.90;;;;;;5013967;28;20455;-83
2022/01/24 00:52:57;;;;;;;13.82;7.50;;;5.70;99.90;;;;;;5012789;28;20462;-83
2022/01/24 00:55:21;;;;;;;10.48;6.93;;;5.70;99.90;;;;;;5013938;28;20544;-83
2022/01/24 00:57:46;;;;;;;13.60;6.80;;;5.70;99.90;;;;;;5012170;28;20034;-83
2022/01/24 01:00:12;;;;;;;12.32;6.90;;;5.70;99.90;;;;;;5012507;28;20026;-83
2022/01/24 01:02:38;;;;;;;11.85;6.97;;;5.70;99.90;;;;;;5013733;28;20065;-83
2022/01/24 01:18:15;;;;;;;13.23;7.68;;;5.60;99.90;;;;;;5013348;28;20112;-83
2022/01/24 01:24:09;;;;;;;13.20;7.68;;;5.60;99.90;;;;;;5013547;28;20390;-83
2022/01/24 01:55:40;;;;;;;18.63;9.48;;;5.50;99.90;;;;;;5016792;28;20109;-83
2022/01/24 01:58:15;;;;;;;15.63;8.75;;;5.60;99.90;;;;;;5016568;28;20141;-83
2022/01/24 02:00:47;;;;;;;18.08;8.93;;;5.60;99.90;;;;;;5016267;28;20026;-83
2022/01/24 02:03:13;;;;;;;18.58;10.15;;;5.60;99.90;;;;;;5015406;28;20545;-83
2022/01/24 02:05:38;;;;;;;16.73;8.77;;;5.50;99.90;;;;;;5015311;28;20045;-83
2022/01/24 02:08:04;;;;;;;17.25;9.27;;;5.50;99.90;;;;;;5015145;28;20030;-83
2022/01/24 02:10:33;;;;;;;16.42;9.23;;;5.50;99.90;;;;;;5015340;28;20374;-83
2022/01/24 02:12:58;;;;;;;18.88;9.95;;;5.50;99.90;;;;;;5016396;28;20018;-83
2022/01/24 02:15:34;;;;;;;17.23;9.68;;;5.60;99.90;;;;;;5016155;28;20026;-83
2022/01/24 02:25:38;;;;;;;15.05;8.60;;;5.50;99.90;;;;;;5015857;28;20036;-83
2022/01/24 02:28:07;;;;;;;15.38;8.85;;;5.50;99.90;;;;;;5015073;28;20118;-83
2022/01/24 02:33:17;;;;;;;15.27;7.97;;;5.50;99.90;;;;;;5016339;28;20036;-83
2022/01/24 02:35:43;;;;;;;16.45;7.93;;;5.50;99.90;;;;;;5014733;28;20385;-83
2022/01/24 02:38:20;;;;;;;15.35;8.07;;;5.50;99.90;;;;;;5015620;28;20470;-83
2022/01/24 02:46:00;;;;;;;15.73;8.50;;;5.50;99.90;;;;;;5014561;28;20065;-83
2022/01/24 02:49:07;;;;;;;14.40;7.97;;;5.40;99.90;;;;;;5029467;28;20517;-83
2022/01/24 02:54:29;;;;;;;16.52;9.10;;;5.40;99.90;;;;;;5023009;28;20040;-83
2022/01/24 02:56:55;;;;;;;15.77;8.60;;;5.40;99.90;;;;;;5014071;28;20029;-83
2022/01/24 02:59:21;;;;;;;17.17;9.45;;;5.50;99.90;;;;;;5014136;28;20057;-83
2022/01/24 03:01:47;;;;;;;17.00;9.25;;;5.40;99.90;;;;;;5013999;28;20052;-83
2022/01/24 03:04:13;;;;;;;16.88;9.10;;;5.40;99.90;;;;;;5014211;28;20053;-83
2022/01/24 03:06:38;;;;;;;16.90;9.13;;;5.40;99.90;;;;;;5015605;28;20029;-83
2022/01/24 03:09:06;;;;;;;20.52;10.45;;;5.40;99.90;;;;;;5014215;28;20026;-83
2022/01/24 03:11:56;;;;;;;19.52;10.07;;;5.40;99.90;;;;;;5014594;28;20037;-83
2022/01/24 03:14:34;;;;;;;19.25;9.63;;;5.40;99.90;;;;;;5014973;28;20026;-83
2022/01/24 03:17:00;;;;;;;19.98;10.65;;;5.40;99.90;;;;;;5014897;28;20050;-83
2022/01/24 03:22:47;;;;;;;17.92;9.65;;;5.30;99.90;;;;;;5015132;28;20025;-83
2022/01/24 03:25:13;;;;;;;17.55;10.23;;;5.40;99.90;;;;;;5012819;28;20030;-83
2022/01/24 03:27:38;;;;;;;20.55;11.20;;;5.40;99.90;;;;;;5012517;28;20026;-83
2022/01/24 03:30:05;;;;;;;19.00;10.63;;;5.30;99.90;;;;;;5012510;28;20156;-83
2022/01/24 03:32:30;;;;;;;21.95;10.98;;;5.40;99.90;;;;;;5012205;28;20482;-83
2022/01/24 03:34:56;;;;;;;20.35;10.55;;;5.30;99.90;;;;;;5012166;28;20112;-83
2022/01/24 03:37:21;;;;;;;22.48;11.07;;;5.40;99.90;;;;;;5012353;28;20026;-83
2022/01/24 03:39:47;;;;;;;25.23;11.70;;;5.40;99.90;;;;;;5012262;28;20034;-83
2022/01/24 03:42:12;;;;;;;22.48;11.32;;;5.30;99.90;;;;;;5011985;28;20033;-83
2022/01/24 03:44:38;;;;;;;23.02;12.27;;;5.30;99.90;;;;;;5012148;28;20026;-83
2022/01/24 03:47:30;;;;;;;25.27;11.70;;;5.40;99.90;;;;;;5012457;28;20068;-83
2022/01/24 03:49:56;;;;;;;25.63;11.77;;;5.30;99.90;;;;;;5011693;28;20022;-83
2022/01/24 03:52:22;;;;;;;24.15;12.57;;;5.30;99.90;;;;;;5013507;28;20484;-83
2022/01/24 03:54:49;;;;;;;24.48;12.45;;;5.30;99.90;;;;;;5011774;28;20108;-83
2022/01/24 03:57:17;;;;;;;25.80;13.10;;;5.30;99.90;;;;;;4996156;28;20531;-83
2022/01/24 03:59:43;;;;;;;24.42;12.95;;;5.40;99.90;;;;;;5010910;28;20030;-83
2022/01/24 04:02:11;;;;;;;26.58;12.82;;;5.30;99.90;;;;;;5013475;28;20110;-83
2022/01/24 04:04:36;;;;;;;25.42;12.73;;;5.30;99.90;;;;;;5011598;28;20026;-83
2022/01/24 04:07:02;;;;;;;28.23;13.20;;;5.30;99.90;;;;;;5011937;28;20024;-83
2022/01/24 04:09:28;;;;;;;29.73;13.35;;;5.30;99.90;;;;;;5011840;28;20104;-83
2022/01/24 04:11:56;;;;;;;27.20;13.65;;;5.30;99.90;;;;;;5028408;28;20022;-83
2022/01/24 04:17:05;;;;;;;29.23;14.20;;;5.30;99.90;;;;;;5012687;28;20549;-83
2022/01/24 04:22:12;;;;;;;29.17;14.00;;;5.30;99.90;;;;;;5013263;28;20034;-83
2022/01/24 04:24:38;;;;;;;29.80;13.68;;;5.30;99.90;;;;;;5011594;28;20018;-84
2022/01/24 04:27:04;;;;;;;27.88;14.40;;;5.30;99.90;;;;;;5012822;28;20036;-83
2022/01/24 04:29:30;;;;;;;33.25;15.73;;;5.30;99.90;;;;;;5011661;28;20124;-83
2022/01/24 04:31:56;;;;;;;29.45;14.18;;;5.30;99.90;;;;;;5011416;28;20101;-83
2022/01/24 04:34:21;;;;;;;29.15;13.27;;;5.30;99.90;;;;;;5011435;28;20382;-83
2022/01/24 04:36:47;;;;;;;24.40;13.13;;;5.30;99.90;;;;;;5011672;28;20385;-83
2022/01/24 04:39:13;;;;;;;29.08;13.05;;;5.30;99.90;;;;;;5011642;28;20033;-83
2022/01/24 04:41:43;;;;;;;22.27;11.75;;;5.30;99.90;;;;;;5011361;28;20034;-83
2022/01/24 04:57:07;;;;;;;24.33;12.55;;;5.20;99.90;;;;;;5012654;28;20399;-83
2022/01/24 04:59:33;;;;;;;25.20;13.00;;;5.20;99.90;;;;;;5012795;28;20046;-83
2022/01/24 05:01:59;;;;;;;25.67;13.45;;;5.30;99.90;;;;;;5011078;28;20056;-83
2022/01/24 05:04:24;;;;;;;27.38;13.43;;;5.30;99.90;;;;;;5011451;28;20084;-83
2022/01/24 05:06:50;;;;;;;26.30;13.38;;;5.30;99.90;;;;;;5012258;28;20475;-83
2022/01/24 05:09:17;;;;;;;25.23;12.93;;;5.30;99.90;;;;;;5019494;28;20589;-83
2022/01/24 05:11:52;;;;;;;27.02;13.38;;;5.20;99.90;;;;;;5013957;28;20022;-83
2022/01/24 05:25:15;;;;;;;30.02;13.70;;;5.30;99.90;;;;;;5015780;28;20088;-83
2022/01/24 05:27:41;;;;;;;25.15;13.43;;;5.20;99.90;;;;;;5014732;28;20433;-83
2022/01/24 05:30:07;;;;;;;24.25;13.43;;;5.20;99.90;;;;;;5014532;28;20034;-83
2022/01/24 05:32:32;;;;;;;26.05;13.52;;;5.30;99.90;;;;;;5020170;28;20057;-84
2022/01/24 05:34:58;;;;;;;22.15;12.48;;;5.20;99.90;;;;;;5014208;28;20034;-83
2022/01/24 05:37:23;;;;;;;28.48;13.80;;;5.20;99.90;;;;;;5012108;28;20056;-82
2022/01/24 05:39:49;;;;;;;30.55;14.77;;;5.20;99.90;;;;;;5015462;28;20034;-82
2022/01/24 05:42:18;;;;;;;28.15;13.30;;;5.20;99.90;;;;;;5016121;28;20080;-83
2022/01/24 05:44:44;;;;;;;30.25;13.48;;;5.20;99.90;;;;;;5003689;28;20080;-83
2022/01/24 05:47:10;;;;;;;28.23;13.65;;;5.20;99.90;;;;;;4999401;28;20026;-83
2022/01/24 05:49:35;;;;;;;29.55;13.20;;;5.20;99.90;;;;;;4998839;28;20717;-83
2022/01/24 05:52:03;;;;;;;35.97;16.02;;;5.20;99.90;;;;;;4998581;28;20026;-83
2022/01/24 05:54:30;;;;;;;36.67;17.73;;;5.20;90.60;;;;;;5001660;28;20053;-83
2022/01/24 05:56:56;;;;;;;37.25;18.58;;;5.20;98.00;;;;;;5017485;28;20076;-83
2022/01/24 05:59:21;;;;;;;34.40;16.73;;;5.20;99.20;;;;;;5014351;28;20038;-84
2022/01/24 06:01:47;;;;;;;37.90;17.95;;;5.20;1.00;;;;;;5004719;28;20057;-84
2022/01/24 06:04:12;;;;;;;28.48;14.35;;;5.20;52.80;;;;;;5000034;28;20030;-85
2022/01/24 06:06:38;;;;;;;28.30;14.55;;;5.20;45.50;;;;;;5000645;28;20109;-84
2022/01/24 06:09:03;;;;;;;28.95;13.73;;;5.20;28.10;;;;;;4996675;28;20383;-84
2022/01/24 06:11:29;;;;;;;30.55;16.15;;;5.20;1.00;;;;;;4999033;28;20054;-84
2022/01/24 06:13:57;;;;;;;26.00;13.85;;;5.20;1.00;;;;;;5009949;28;20493;-84
2022/01/24 06:16:22;;;;;;;30.55;14.32;;;5.20;1.00;;;;;;5000715;28;20462;-84
2022/01/24 06:18:48;;;;;;;27.50;13.27;;;5.20;12.50;;;;;;5001966;28;20029;-84
2022/01/24 06:21:13;;;;;;;27.80;13.88;;;5.20;1.00;;;;;;5003786;28;20037;-84
2022/01/24 06:23:39;;;;;;;26.60;13.15;;;5.20;1.00;;;;;;5012661;28;20018;-84
2022/01/24 06:26:04;;;;;;;25.27;13.00;;;5.20;1.00;;;;;;5013167;28;20030;-84
2022/01/24 06:28:30;;;;;;;27.85;13.07;;;5.20;1.00;;;;;;5015428;28;20560;-84
2022/01/24 06:30:56;;;;;;;28.70;14.38;;;5.20;1.00;;;;;;5015059;28;20445;-84
2022/01/24 06:33:22;;;;;;;24.17;11.60;;;5.20;1.00;;;;;;5015037;28;20385;-84
2022/01/24 06:35:47;;;;;;;24.38;12.52;;;5.20;1.00;;;;;;5015714;28;20097;-83
2022/01/24 06:38:13;;;;;;;28.67;13.23;;;5.20;1.00;;;;;;5016021;28;20040;-84
2022/01/24 06:40:38;;;;;;;28.52;13.27;;;5.20;99.90;;;;;;5016650;28;20026;-83
2022/01/24 06:43:04;;;;;;;29.50;13.63;;;5.20;1.00;;;;;;5014283;28;20030;-83
2022/01/24 06:45:30;;;;;;;26.25;12.85;;;5.20;1.00;;;;;;5013837;28;20026;-83
2022/01/24 06:47:55;;;;;;;27.35;13.07;;;5.20;1.00;;;;;;5009471;28;20550;-84
2022/01/24 06:50:21;;;;;;;26.20;14.32;;;5.20;1.00;;;;;;5004781;28;20171;-83
2022/01/24 06:52:47;;;;;;;26.88;14.05;;;5.20;1.00;;;;;;5003124;28;20027;-83
2022/01/24 06:55:13;;;;;;;30.67;13.73;;;5.20;99.90;;;;;;5013381;28;20030;-83
2022/01/24 06:57:39;;;;;;;26.13;13.52;;;5.20;99.90;;;;;;5007095;28;20022;-84
2022/01/24 07:00:06;;;;;;;23.48;12.30;;;5.20;1.00;;;;;;5013081;28;20041;-83
2022/01/24 07:02:31;;;;;;;24.60;12.57;;;5.20;1.00;;;;;;5014105;28;20068;-84
2022/01/24 07:04:57;;;;;;;23.60;12.88;;;5.20;1.00;;;;;;5014235;28;20033;-83
2022/01/24 07:07:22;;;;;;;26.42;13.38;;;5.20;99.90;;;;;;5012602;28;20113;-84
2022/01/24 07:09:48;;;;;;;25.13;12.38;;;5.20;1.00;;;;;;5014044;28;20109;-84
2022/01/24 07:12:14;;;;;;;28.55;13.60;;;5.20;1.00;;;;;;5011156;28;20033;-84
2022/01/24 07:14:41;;;;;;;26.55;13.93;;;5.20;1.00;;;;;;5008131;28;20017;-83
2022/01/24 07:19:36;;;;;;;25.58;12.55;;;5.10;1.00;;;;;;5014133;28;20399;-83
2022/01/24 07:22:04;;;;;;;25.30;13.00;;;5.10;1.00;;;;;;5012604;28;20041;-83
2022/01/24 07:24:30;;;;;;;22.40;11.95;;;5.20;1.00;;;;;;5013023;28;20437;-83
2022/01/24 07:26:55;;;;;;;26.08;13.27;;;5.20;1.00;;;;;;5013612;28;20385;-83
2022/01/24 07:29:22;;;;;;;25.13;13.05;;;5.20;1.00;;;;;;5012203;28;20079;-84
2022/01/24 07:31:47;;;;;;;26.05;12.35;;;5.20;1.00;;;;;;5013539;28;20050;-84
2022/01/24 07:34:13;;;;;;;22.65;12.07;;;5.10;1.00;;;;;;5012469;28;20421;-83
2022/01/24 07:36:39;;;;;;;24.58;13.43;;;5.20;1.00;;;;;;5014339;28;20032;-83
2022/01/24 07:39:05;;;;;;;24.70;12.20;;;5.20;1.00;;;;;;5021421;28;20129;-84
2022/01/24 07:41:33;;;;;;;27.20;12.50;;;5.20;1.00;;;;;;5012830;28;20490;-84
2022/01/24 07:43:59;;;;;;;25.40;12.55;;;5.20;1.00;;;;;;5013398;28;20026;-83
2022/01/24 07:46:25;;;;;;;23.42;12.27;;;5.20;1.00;;;;;;5013926;28;20018;-84
2022/01/24 07:48:50;;;;;;;25.20;12.82;;;5.20;1.00;;;;;;5012990;28;20026;-84
2022/01/24 07:51:16;;;;;;;25.40;12.73;;;5.20;1.00;;;;;;5012082;28;20068;-84
2022/01/24 07:53:42;;;;;;;28.55;13.00;;;5.20;1.00;;;;;;5012956;28;20056;-83
2022/01/24 07:56:09;;;;;;;29.58;13.30;;;5.20;1.00;;;;;;5013982;28;20017;-84
2022/01/24 07:58:34;;;;;;;30.60;13.82;;;5.10;1.00;;;;;;4996707;28;20442;-83
2022/01/24 08:01:00;;;;;;;30.10;14.48;;;5.20;1.00;;;;;;4996853;28;20033;-85
2022/01/24 08:03:26;;;;;;;29.35;14.35;;;5.20;99.90;;;;;;4998740;28;20025;-83
2022/01/24 08:05:52;;;;;;;29.45;14.52;;;5.20;1.00;;;;;;5017737;28;20436;-83
2022/01/24 08:08:18;;;;;;;33.13;16.52;;;5.30;1.00;;;;;;5015247;28;20033;-83
2022/01/24 08:10:43;;;;;;;30.55;15.30;;;5.20;1.00;;;;;;5015511;28;20061;-83
2022/01/24 08:13:09;;;;;;;31.02;15.23;;;5.20;99.90;;;;;;5011896;28;20385;-84
2022/01/24 08:15:34;;;;;;;35.20;15.65;;;5.30;99.90;;;;;;5014261;28;20021;-84
2022/01/24 08:18:00;;;;;;;33.67;15.73;;;5.30;99.90;;;;;;5012222;28;20065;-84
2022/01/24 08:20:26;;;;;;;33.63;15.20;;;5.30;99.90;;;;;;5013071;28;20079;-83
2022/01/24 08:22:51;;;;;;;31.80;14.50;;;5.30;99.90;;;;;;5012568;28;20033;-83
2022/01/24 08:25:17;;;;;;;34.20;15.30;;;5.30;99.90;;;;;;5012473;28;20033;-84
2022/01/24 08:27:43;;;;;;;32.78;15.60;;;5.30;99.90;;;;;;5012369;28;20105;-84
2022/01/24 08:30:12;;;;;;;34.83;16.33;;;5.30;99.90;;;;;;5011234;28;20176;-84
2022/01/24 08:32:39;;;;;;;34.22;15.70;;;5.30;99.90;;;;;;5017751;28;20022;-83
2022/01/24 08:35:05;;;;;;;36.95;16.80;;;5.30;99.90;;;;;;5023945;28;20057;-84
2022/01/24 08:37:31;;;;;;;35.60;16.67;;;5.30;99.90;;;;;;5024766;28;20029;-84
2022/01/24 08:39:58;;;;;;;33.20;15.00;;;5.30;99.90;;;;;;5024197;28;20030;-84
2022/01/24 08:42:35;;;;;;;34.08;16.15;;;5.40;99.90;;;;;;5018495;28;20026;-84
2022/01/24 08:47:29;;;;;;;36.50;18.02;;;5.40;99.90;;;;;;5015934;28;20389;-84
2022/01/24 08:49:56;;;;;;;36.28;17.48;;;5.40;99.90;;;;;;5014910;28;20157;-83
2022/01/24 08:52:22;;;;;;;36.42;17.77;;;5.50;99.90;;;;;;5015792;28;20034;-83
2022/01/24 08:54:48;;;;;;;41.58;18.92;;;5.50;99.90;;;;;;5015720;28;20036;-83
2022/01/24 08:57:13;;;;;;;36.47;16.85;;;5.50;99.90;;;;;;5016756;28;20579;-83
2022/01/24 08:59:40;;;;;;;36.70;15.57;;;5.50;99.90;;;;;;5016703;28;20161;-83
2022/01/24 09:02:06;;;;;;;36.25;18.05;;;5.50;99.90;;;;;;5016857;28;20157;-83
2022/01/24 09:04:32;;;;;;;35.63;16.00;;;5.50;99.90;;;;;;5015445;28;20355;-83
2022/01/24 09:07:02;;;;;;;34.20;16.98;;;5.60;99.90;;;;;;5014990;28;20022;-83
2022/01/24 09:09:28;;;;;;;39.00;17.83;;;5.50;99.90;;;;;;5012416;28;20026;-83
2022/01/24 09:11:53;;;;;;;35.30;18.25;;;5.60;99.90;;;;;;5010217;28;20040;-84
2022/01/24 09:14:19;;;;;;;36.35;17.50;;;5.60;99.90;;;;;;5015373;28;20511;-84
2022/01/24 09:16:46;;;;;;;35.75;18.23;;;5.60;99.90;;;;;;5011468;28;20050;-84
2022/01/24 09:19:12;;;;;;;34.97;18.00;;;5.60;99.90;;;;;;5022518;28;20482;-84
2022/01/24 09:21:37;;;;;;;34.42;16.58;;;5.70;99.90;;;;;;5007239;28;20026;-84
2022/01/24 09:24:03;;;;;;;34.90;16.52;;;5.70;99.90;;;;;;5012167;28;20073;-83
2022/01/24 09:26:29;;;;;;;35.08;16.23;;;5.70;99.90;;;;;;5017188;28;20033;-84
2022/01/24 09:28:55;;;;;;;31.98;15.15;;;5.70;99.90;;;;;;5019124;28;20039;-83
2022/01/24 09:31:22;;;;;;;32.88;15.32;;;5.80;99.90;;;;;;5018102;28;20097;-83
2022/01/24 09:33:49;;;;;;;29.08;15.20;;;5.80;99.90;;;;;;5005810;28;20102;-84
2022/01/24 09:36:14;;;;;;;34.88;15.10;;;5.80;99.90;;;;;;5004883;28;20375;-84
2022/01/24 09:38:40;;;;;;;32.33;15.23;;;5.90;99.90;;;;;;5007916;28;20562;-83
2022/01/24 09:41:08;;;;;;;26.40;13.77;;;5.80;99.90;;;;;;5012044;28;20031;-83
2022/01/24 09:43:34;;;;;;;32.38;14.68;;;6.00;99.90;;;;;;5011698;28;20490;-84
2022/01/24 09:46:00;;;;;;;28.65;13.90;;;5.90;99.90;;;;;;5013406;28;20037;-83
2022/01/24 09:48:26;;;;;;;29.80;13.80;;;5.90;99.90;;;;;;5009249;28;20034;-83
2022/01/24 09:50:53;;;;;;;30.35;14.75;;;6.00;99.90;;;;;;5014117;28;20029;-83
2022/01/24 09:53:19;;;;;;;31.58;15.30;;;5.90;99.90;;;;;;5011310;28;20056;-83
2022/01/24 09:55:46;;;;;;;31.98;15.82;;;6.00;99.90;;;;;;5005347;28;20049;-83
2022/01/24 09:58:11;;;;;;;31.45;14.82;;;6.00;99.90;;;;;;5005169;28;20138;-84
2022/01/24 10:00:37;;;;;;;31.95;15.50;;;6.10;99.90;;;;;;5023807;28;20057;-84
2022/01/24 10:03:03;;;;;;;33.65;14.70;;;6.10;99.90;;;;;;5032912;28;20022;-84
2022/01/24 10:05:35;;;;;;;33.83;16.10;;;6.10;99.90;;;;;;5018344;28;20049;-84
2022/01/24 10:08:06;;;;;;;34.15;16.35;;;6.10;99.90;;;;;;5011725;28;20027;-84
2022/01/24 10:10:46;;;;;;;34.63;15.85;;;6.20;99.90;;;;;;5021459;28;20026;-84
2022/01/24 10:16:37;;;;;;;34.70;15.05;;;6.20;99.90;;;;;;5005582;28;20402;-83
2022/01/24 10:19:29;;;;;;;31.85;15.38;;;6.20;99.90;;;;;;5003433;28;20072;-83
2022/01/24 10:22:00;;;;;;;31.40;14.68;;;6.20;99.90;;;;;;5008249;28;20034;-83
2022/01/24 10:24:45;;;;;;;32.90;15.68;;;6.30;99.90;;;;;;5015238;28;20067;-83
2022/01/24 10:27:25;;;;;;;32.45;15.02;;;6.30;99.90;;;;;;5002186;28;20100;-83
2022/01/24 10:29:50;;;;;;;;;;;6.40;99.90;;;;;;5013431;28;20062;-83
2022/01/24 10:32:30;;;;;;;34.88;15.80;;;6.40;99.90;;;;;;5010594;28;19948;-83
2022/01/24 10:34:56;;;;;;;31.17;15.32;;;6.40;99.90;;;;;;5013684;28;20044;-82
2022/01/24 10:37:23;;;;;;;31.15;14.82;;;6.50;99.90;;;;;;5014086;28;20439;-82
2022/01/24 10:39:57;;;;;;;29.67;14.98;;;6.40;99.90;;;;;;5014918;28;20030;-83
2022/01/24 10:44:57;;;;;;;30.52;15.68;;;6.50;99.90;;;;;;5014066;28;20021;-82
2022/01/24 10:47:27;;;;;;;37.58;16.95;;;6.60;99.90;;;;;;5005591;28;20018;-83
2022/01/24 10:49:52;;;;;;;37.70;17.63;;;6.60;99.90;;;;;;5011378;28;20022;-83
2022/01/24 10:52:21;;;;;;;32.95;16.15;;;6.60;99.70;;;;;;5012321;28;21747;-83
2022/01/24 10:54:47;;;;;;;41.13;18.65;;;6.70;99.90;;;;;;5012418;28;20042;-83
2022/01/24 10:57:24;;;;;;;34.17;16.42;;;6.70;90.70;;;;;;5012862;28;20030;-83
2022/01/24 10:59:51;;;;;;;34.42;15.73;;;6.70;80.50;;;;;;5013229;28;20038;-83
2022/01/24 11:02:17;;;;;;;36.60;16.85;;;6.70;59.90;;;;;;5013272;28;20116;-83
2022/01/24 11:04:43;;;;;;;34.53;16.00;;;6.80;99.90;;;;;;5013310;28;20026;-82
2022/01/24 11:07:09;;;;;;;34.58;16.95;;;6.80;75.10;;;;;;5011368;28;20030;-83
2022/01/24 11:09:37;;;;;;;35.88;16.42;;;6.80;33.40;;;;;;5001443;28;20037;-83
2022/01/24 11:12:08;;;;;;;35.53;17.23;;;6.80;95.80;;;;;;4999251;28;20505;-83
2022/01/24 11:14:36;;;;;;;39.60;19.35;;;6.80;85.10;;;;;;5005843;28;20053;-83
2022/01/24 11:17:03;;;;;;;40.55;19.20;;;6.90;72.40;;;;;;5012162;28;20054;-83
2022/01/24 11:19:41;;;;;;;41.53;18.75;;;7.00;45.50;;;;;;5014564;28;20058;-83
2022/01/24 11:22:18;;;;;;;38.90;17.95;;;6.90;34.20;;;;;;5005612;28;20026;-83
2022/01/24 11:24:52;;;;;;;36.47;17.58;;;6.90;30.00;;;;;;4997755;28;20025;-83
2022/01/24 11:27:17;;;;;;;38.13;18.05;;;7.00;37.10;;;;;;4996243;28;20513;-83
2022/01/24 11:29:44;;;;;;;34.38;18.10;;;7.00;27.50;;;;;;4997619;28;20494;-83
2022/01/24 11:32:27;;;;;;;35.72;18.30;;;7.00;37.20;;;;;;5009194;28;20161;-83
2022/01/24 11:34:54;;;;;;;37.40;17.38;;;7.00;15.10;;;;;;5012828;28;20022;-83
2022/01/24 11:37:45;;;;;;;38.47;18.95;;;7.00;21.70;;;;;;5007284;28;20037;-83
2022/01/24 11:40:17;;;;;;;36.83;18.60;;;7.00;1.00;;;;;;5012580;28;20050;-83
2022/01/24 11:42:46;;;;;;;39.03;18.55;;;7.10;6.90;;;;;;5019464;28;20053;-83
2022/01/24 11:45:16;;;;;;;36.47;17.53;;;7.10;1.00;;;;;;5012141;28;20037;-84
2022/01/24 11:47:43;;;;;;;35.35;17.45;;;7.10;1.00;;;;;;5007537;28;20059;-83
2022/01/24 11:50:24;;;;;;;37.90;18.33;;;7.20;1.00;;;;;;5010615;28;20048;-83
2022/01/24 11:52:51;;;;;;;38.75;18.55;;;7.20;1.00;;;;;;5010599;28;20038;-83
2022/01/24 11:55:31;;;;;;;37.63;18.35;;;7.10;1.00;;;;;;5010340;28;20077;-83
2022/01/24 11:58:04;;;;;;;38.90;19.67;;;7.10;1.00;;;;;;5004478;28;20041;-83
2022/01/24 12:00:39;;;;;;;39.65;19.10;;;7.20;1.00;;;;;;5012205;28;20393;-83
2022/01/24 12:03:28;;;;;;;39.13;19.90;;;7.20;1.00;;;;;;5010190;28;20061;-82
2022/01/24 12:05:56;;;;;;;41.88;20.35;;;7.20;1.00;;;;;;5009910;28;20037;-83
2022/01/24 12:08:38;;;;;;;41.38;19.83;;;7.20;1.00;;;;;;5009915;28;20619;-83
2022/01/24 12:11:20;;;;;;;39.13;19.45;;;7.20;1.00;;;;;;5012182;28;20017;-83
2022/01/24 12:13:54;;;;;;;41.85;20.45;;;7.20;1.00;;;;;;5011599;28;20030;-83
2022/01/24 12:16:21;;;;;;;40.28;19.42;;;7.30;1.00;;;;;;5010411;28;20375;-83
2022/01/24 12:18:50;;;;;;;38.22;18.67;;;7.20;1.00;;;;;;5011892;28;20137;-84
2022/01/24 12:21:21;;;;;;;34.00;17.17;;;7.20;1.00;;;;;;5008704;28;20018;-83
2022/01/24 12:23:53;;;;;;;37.90;19.20;;;7.30;1.00;;;;;;5005814;28;20030;-83
2022/01/24 12:26:19;;;;;;;36.88;19.10;;;7.20;1.00;;;;;;5006051;28;20018;-83
2022/01/24 12:28:48;;;;;;;42.65;19.95;;;7.20;1.00;;;;;;5012515;28;20067;-83
2022/01/24 12:31:42;;;;;;;40.30;20.85;;;7.30;1.00;;;;;;4995765;28;20054;-83
2022/01/24 12:34:33;;;;;;;45.50;20.70;;;7.20;1.00;;;;;;5014115;28;20413;-83
2022/01/24 12:37:21;;;;;;;40.13;19.60;;;7.20;1.00;;;;;;5011924;28;20030;-83
2022/01/24 12:39:57;;;;;;;39.47;19.98;;;7.20;1.00;;;;;;5012383;28;20030;-83
2022/01/24 12:42:38;;;;;;;42.03;20.73;;;7.20;1.00;;;;;;5013158;28;20081;-83
2022/01/24 12:48:20;;;;;;;35.42;17.63;;;7.20;1.00;;;;;;5009800;28;20045;-83
2022/01/24 12:50:48;;;;;;;37.28;19.83;;;7.30;1.00;;;;;;5005649;28;20033;-84
2022/01/24 12:53:16;;;;;;;38.55;19.08;;;7.30;1.00;;;;;;5010632;28;20030;-83
2022/01/24 12:55:43;;;;;;;43.50;20.90;;;7.20;1.00;;;;;;5012865;28;20030;-83
2022/01/24 12:58:09;;;;;;;41.10;20.60;;;7.10;1.00;;;;;;5011904;28;20026;-83
2022/01/24 13:00:35;;;;;;;42.00;20.38;;;7.10;1.00;;;;;;5012202;28;20032;-83
2022/01/24 13:03:00;;;;;;;39.63;21.27;;;7.10;1.00;;;;;;5018755;28;20030;-83
2022/01/24 13:05:28;;;;;;;39.05;20.48;;;7.10;1.00;;;;;;5010467;28;20065;-84
2022/01/24 13:07:57;;;;;;;45.45;22.80;;;7.20;1.00;;;;;;5019793;28;20393;-83
2022/01/24 13:10:26;;;;;;;43.23;21.23;;;7.10;1.00;;;;;;5010905;28;20026;-83
2022/01/24 13:13:06;;;;;;;46.83;22.65;;;7.10;1.00;;;;;;5012379;28;20028;-83
2022/01/24 13:21:16;;;;;;;38.70;21.00;;;7.00;1.00;;;;;;5013688;28;20100;-83
2022/01/24 13:24:00;;;;;;;41.45;22.63;;;7.10;1.00;;;;;;5012222;28;20477;-83
2022/01/24 13:26:26;;;;;;;41.58;20.80;;;7.10;1.00;;;;;;5013169;28;20534;-82
2022/01/24 13:29:01;;;;;;;43.72;20.77;;;7.10;1.00;;;;;;5013372;28;20030;-83
2022/01/24 13:31:26;;;;;;;41.45;20.50;;;7.10;1.00;;;;;;5013170;28;20449;-83
2022/01/24 13:33:52;;;;;;;43.92;21.52;;;7.10;1.00;;;;;;5016903;28;20489;-83
2022/01/24 13:36:19;;;;;;;47.65;22.05;;;7.10;1.00;;;;;;5018119;28;20044;-83
2022/01/24 13:38:47;;;;;;;42.17;22.05;;;7.10;1.00;;;;;;5016400;28;20132;-83
2022/01/24 13:41:15;;;;;;;40.85;21.15;;;7.10;1.00;;;;;;5017305;28;20026;-83
2022/01/24 13:43:47;;;;;;;40.63;21.40;;;7.10;1.00;;;;;;5018094;28;20037;-83
2022/01/24 13:46:23;;;;;;;39.70;20.92;;;7.00;1.00;;;;;;5017198;28;20026;-83
2022/01/24 13:49:02;;;;;;;42.22;21.42;;;7.00;1.00;;;;;;5019092;28;20314;-83
2022/01/24 13:51:39;;;;;;;39.53;20.50;;;7.00;1.00;;;;;;5022900;28;20160;-83
2022/01/24 13:54:07;;;;;;;42.17;21.88;;;7.00;1.00;;;;;;5025119;28;20034;-83
2022/01/24 13:56:44;;;;;;;46.72;23.20;;;7.00;1.00;;;;;;5028176;28;20405;-83
2022/01/24 13:59:27;;;;;;;42.88;22.77;;;7.00;1.00;;;;;;5029470;28;20034;-83
2022/01/24 14:01:57;;;;;;;41.15;20.67;;;7.00;1.00;;;;;;5028577;28;20489;-83
2022/01/24 14:04:48;;;;;;;43.33;21.60;;;7.00;1.00;;;;;;5028225;28;20054;-84
2022/01/24 14:07:21;;;;;;;50.65;26.30;;;7.00;1.00;;;;;;5027915;28;20034;-84
2022/01/24 14:10:01;;;;;;;45.45;22.48;;;6.90;1.00;;;;;;5030344;28;20097;-83
2022/01/24 14:12:40;;;;;;;38.38;20.38;;;6.90;1.00;;;;;;5030802;28;20472;-83
2022/01/24 14:16:00;;;;;;;43.72;20.63;;;6.90;1.00;;;;;;5024489;28;20037;-83
2022/01/24 14:18:36;;;;;;;37.97;19.15;;;6.90;1.00;;;;;;5017172;28;20434;-83
2022/01/24 14:21:08;;;;;;;53.28;24.45;;;6.80;1.00;;;;;;5005304;28;20057;-83
2022/01/24 14:23:40;;;;;;;48.03;23.23;;;6.80;1.00;;;;;;5025821;28;20047;-83
2022/01/24 14:26:32;;;;;;;43.65;21.58;;;6.80;1.00;;;;;;5032454;28;20024;-83
2022/01/24 14:29:12;;;;;;;43.60;21.60;;;6.70;1.00;;;;;;5029188;28;20049;-82
2022/01/24 14:31:38;;;;;;;46.08;22.88;;;6.70;1.00;;;;;;5025375;28;20031;-85
2022/01/24 14:34:06;;;;;;;40.95;21.40;;;6.70;1.00;;;;;;5024485;28;20089;-83
2022/01/24 14:36:34;;;;;;;44.25;22.00;;;6.70;1.00;;;;;;5026892;28;20018;-83
2022/01/24 14:39:06;;;;;;;42.92;22.55;;;6.60;1.00;;;;;;5023004;28;20093;-83
2022/01/24 14:41:45;;;;;;;45.05;21.35;;;6.60;1.00;;;;;;5019340;28;20101;-84
2022/01/24 14:46:58;;;;;;;40.95;21.17;;;6.60;1.00;;;;;;5019442;28;20113;-83
2022/01/24 14:49:27;;;;;;;37.03;18.70;;;6.50;1.00;;;;;;5014945;28;20041;-83
2022/01/24 14:52:03;;;;;;;45.95;21.98;;;6.50;1.00;;;;;;5009135;28;20065;-83
2022/01/24 14:54:31;;;;;;;43.63;21.42;;;6.40;1.00;;;;;;5011434;28;20456;-84
2022/01/24 14:56:59;;;;;;;42.85;22.38;;;6.40;1.00;;;;;;5006644;28;20629;-83
2022/01/24 14:59:26;;;;;;;41.65;22.33;;;6.40;1.00;;;;;;5008010;28;20053;-83
2022/01/24 15:01:53;;;;;;;42.15;22.08;;;6.30;1.00;;;;;;5012119;28;20050;-83
2022/01/24 15:04:19;;;;;;;46.50;22.88;;;6.30;1.00;;;;;;5015026;28;20058;-84
2022/01/24 15:06:45;;;;;;;46.55;22.90;;;6.40;1.00;;;;;;5019147;28;20113;-82
2022/01/24 15:09:23;;;;;;;44.22;22.27;;;6.30;1.00;;;;;;5020361;28;20444;-83
2022/01/24 15:11:50;;;;;;;46.80;23.65;;;6.30;1.00;;;;;;5018408;28;20022;-83
2022/01/24 15:14:23;;;;;;;45.58;22.60;;;6.20;1.00;;;;;;5023309;28;20116;-83